createdAt,value
2023-04-16T00:00:52.007Z,87901.00
2023-04-16T00:01:52.118Z,87903.00
2023-04-16T00:02:52.275Z,87905.00
2023-04-16T00:03:52.428Z,87905.00
2023-04-16T00:04:52.209Z,87903.00
2023-04-16T00:05:52.177Z,87907.00
2023-04-16T00:06:52.208Z,87909.00
2023-04-16T00:07:52.239Z,87909.00
2023-04-16T00:08:52.292Z,87907.00
2023-04-16T00:09:52.337Z,87909.00
2023-04-16T00:10:52.353Z,87907.00
2023-04-16T00:11:54.431Z,87909.00
2023-04-16T00:12:52.427Z,87907.00
2023-04-16T00:13:52.455Z,87909.00
2023-04-16T00:14:52.507Z,87907.00
2023-04-16T00:15:52.541Z,87907.00
2023-04-16T00:16:52.646Z,87907.00
2023-04-16T00:17:52.823Z,87907.00
2023-04-16T00:18:52.684Z,87905.00
2023-04-16T00:19:52.669Z,87905.00
2023-04-16T00:20:52.704Z,87905.00
2023-04-16T00:21:52.721Z,87905.00
2023-04-16T00:22:52.751Z,87903.00
2023-04-16T00:23:52.799Z,87905.00
2023-04-16T00:24:52.843Z,87905.00
2023-04-16T00:25:52.807Z,87903.00
2023-04-16T00:26:52.776Z,87905.00
2023-04-16T00:27:52.757Z,87901.00
2023-04-16T00:28:52.752Z,87907.00
2023-04-16T00:29:52.702Z,87907.00
2023-04-16T00:30:52.736Z,87905.00
2023-04-16T00:31:52.647Z,87905.00
2023-04-16T00:32:52.665Z,87907.00
2023-04-16T00:33:52.595Z,87903.00
2023-04-16T00:34:52.561Z,87905.00
2023-04-16T00:35:52.596Z,87905.00
2023-04-16T00:36:52.648Z,87907.00
2023-04-16T00:37:52.680Z,87907.00
2023-04-16T00:38:52.729Z,87907.00
2023-04-16T00:39:52.745Z,87909.00
2023-04-16T00:40:52.796Z,87905.00
2023-04-16T00:41:52.846Z,87907.00
2023-04-16T00:42:52.880Z,87907.00
2023-04-16T00:43:52.931Z,87907.00
2023-04-16T00:44:52.977Z,87907.00
2023-04-16T00:45:52.947Z,87907.00
2023-04-16T00:46:52.908Z,87907.00
2023-04-16T00:47:52.923Z,87907.00
2023-04-16T00:48:52.861Z,87909.00
2023-04-16T00:49:52.825Z,87909.00
2023-04-16T00:50:52.795Z,87907.00
2023-04-16T00:51:52.774Z,87907.00
2023-04-16T00:52:52.773Z,87903.00
2023-04-16T00:53:52.716Z,87903.00
2023-04-16T00:54:52.721Z,87903.00
2023-04-16T00:55:52.669Z,87905.00
2023-04-16T00:56:52.680Z,87907.00
2023-04-16T00:57:52.656Z,87905.00
2023-04-16T00:58:52.609Z,87907.00
2023-04-16T00:59:52.588Z,87905.00
2023-04-16T01:00:52.626Z,87905.00
2023-04-16T01:01:52.801Z,87905.00
2023-04-16T01:02:52.757Z,87905.00
2023-04-16T01:03:52.919Z,87907.00
2023-04-16T01:04:52.785Z,87909.00
2023-04-16T01:05:52.825Z,87907.00
2023-04-16T01:06:52.867Z,87905.00
2023-04-16T01:07:52.904Z,87907.00
2023-04-16T01:08:52.962Z,87907.00
2023-04-16T01:09:53.016Z,87909.00
2023-04-16T01:10:53.058Z,87909.00
2023-04-16T01:11:53.101Z,87909.00
2023-04-16T01:12:53.146Z,87911.00
2023-04-16T01:13:53.210Z,87909.00
2023-04-16T01:14:53.220Z,87909.00
2023-04-16T01:15:53.311Z,87911.00
2023-04-16T01:16:53.317Z,87909.00
2023-04-16T01:17:53.382Z,87909.00
2023-04-16T01:18:53.363Z,87909.00
2023-04-16T01:19:53.418Z,87909.00
2023-04-16T01:20:53.477Z,87907.00
2023-04-16T01:21:53.488Z,87909.00
2023-04-16T01:22:53.519Z,87911.00
2023-04-16T01:23:53.564Z,87911.00
2023-04-16T01:24:53.609Z,87911.00
2023-04-16T01:25:53.647Z,87911.00
2023-04-16T01:26:53.684Z,87911.00
2023-04-16T01:27:53.730Z,87911.00
2023-04-16T01:28:53.769Z,87913.00
2023-04-16T01:29:53.831Z,87913.00
2023-04-16T01:30:53.897Z,87911.00
2023-04-16T01:31:53.968Z,87913.00
2023-04-16T01:32:54.013Z,87911.00
2023-04-16T01:33:53.994Z,87913.00
2023-04-16T01:34:54.077Z,87913.00
2023-04-16T01:35:54.092Z,87915.00
2023-04-16T01:36:54.183Z,87913.00
2023-04-16T01:37:54.196Z,87915.00
2023-04-16T01:38:54.237Z,87915.00
2023-04-16T01:39:54.283Z,87915.00
2023-04-16T01:40:54.316Z,87915.00
2023-04-16T01:41:54.375Z,87915.00
2023-04-16T01:42:54.423Z,87915.00
2023-04-16T01:43:54.465Z,87919.00
2023-04-16T01:44:54.504Z,87915.00
2023-04-16T01:45:54.548Z,87919.00
2023-04-16T01:46:54.636Z,87919.00
2023-04-16T01:47:54.685Z,87921.00
2023-04-16T01:48:54.670Z,87921.00
2023-04-16T01:49:54.709Z,87919.00
2023-04-16T01:50:54.754Z,87921.00
2023-04-16T01:51:54.768Z,87922.00
2023-04-16T01:52:54.836Z,87922.00
2023-04-16T01:53:54.879Z,87922.00
2023-04-16T01:54:54.887Z,87924.00
2023-04-16T01:55:54.916Z,87924.00
2023-04-16T01:56:54.954Z,87922.00
2023-04-16T01:57:54.923Z,87922.00
2023-04-16T01:58:54.893Z,87924.00
2023-04-16T01:59:54.842Z,87921.00
2023-04-16T02:00:54.848Z,87926.00
2023-04-16T02:01:54.907Z,87922.00
2023-04-16T02:02:54.980Z,87922.00
2023-04-16T02:03:54.850Z,87919.00
2023-04-16T02:04:54.731Z,87921.00
2023-04-16T02:05:54.689Z,87922.00
2023-04-16T02:06:54.650Z,87921.00
2023-04-16T02:07:54.626Z,87921.00
2023-04-16T02:08:54.626Z,87922.00
2023-04-16T02:09:54.705Z,87922.00
2023-04-16T02:10:54.721Z,87926.00
2023-04-16T02:11:54.746Z,87922.00
2023-04-16T02:12:54.795Z,87926.00
2023-04-16T02:13:54.779Z,87924.00
2023-04-16T02:14:54.768Z,87926.00
2023-04-16T02:15:54.829Z,87928.00
2023-04-16T02:16:54.907Z,87928.00
2023-04-16T02:17:54.890Z,87928.00
2023-04-16T02:18:54.889Z,87928.00
2023-04-16T02:19:54.921Z,87928.00
2023-04-16T02:20:54.968Z,87932.00
2023-04-16T02:21:54.973Z,87932.00
2023-04-16T02:22:54.992Z,87932.00
2023-04-16T02:23:55.026Z,87932.00
2023-04-16T02:24:55.045Z,87934.00
2023-04-16T02:25:55.080Z,87934.00
2023-04-16T02:26:55.128Z,87934.00
2023-04-16T02:27:55.179Z,87936.00
2023-04-16T02:28:55.216Z,87934.00
2023-04-16T02:29:55.239Z,87936.00
2023-04-16T02:30:55.284Z,87936.00
2023-04-16T02:31:55.375Z,87938.00
2023-04-16T02:32:55.382Z,87938.00
2023-04-16T02:33:55.367Z,87936.00
2023-04-16T02:34:55.437Z,87938.00
2023-04-16T02:35:55.480Z,87938.00
2023-04-16T02:36:55.493Z,87938.00
2023-04-16T02:37:55.552Z,87938.00
2023-04-16T02:38:55.578Z,87938.00
2023-04-16T02:39:55.634Z,87938.00
2023-04-16T02:40:55.652Z,87938.00
2023-04-16T02:41:55.686Z,87940.00
2023-04-16T02:42:55.741Z,87940.00
2023-04-16T02:43:55.739Z,87936.00
2023-04-16T02:44:55.795Z,87940.00
2023-04-16T02:45:55.838Z,87934.00
2023-04-16T02:46:55.856Z,87936.00
2023-04-16T02:47:55.920Z,87936.00
2023-04-16T02:48:55.879Z,87938.00
2023-04-16T02:49:55.866Z,87938.00
2023-04-16T02:50:55.874Z,87938.00
2023-04-16T02:51:55.922Z,87942.00
2023-04-16T02:52:56.001Z,87942.00
2023-04-16T02:53:55.964Z,87938.00
2023-04-16T02:54:55.986Z,87942.00
2023-04-16T02:55:55.961Z,87942.00
2023-04-16T02:56:55.959Z,87942.00
2023-04-16T02:57:55.970Z,87944.00
2023-04-16T02:58:55.983Z,87940.00
2023-04-16T02:59:55.991Z,87942.00
2023-04-16T03:00:56.036Z,87942.00
2023-04-16T03:01:56.108Z,87942.00
2023-04-16T03:02:56.171Z,87940.00
2023-04-16T03:03:56.034Z,87942.00
2023-04-16T03:04:56.020Z,87942.00
2023-04-16T03:05:56.043Z,87944.00
2023-04-16T03:06:56.054Z,87946.00
2023-04-16T03:07:56.055Z,87944.00
2023-04-16T03:08:56.063Z,87944.00
2023-04-16T03:09:56.072Z,87942.00
2023-04-16T03:10:56.081Z,87944.00
2023-04-16T03:11:56.124Z,87948.00
2023-04-16T03:12:56.156Z,87946.00
2023-04-16T03:13:56.158Z,87946.00
2023-04-16T03:14:56.168Z,87946.00
2023-04-16T03:15:56.210Z,87948.00
2023-04-16T03:16:56.197Z,87948.00
2023-04-16T03:17:56.289Z,87950.00
2023-04-16T03:18:56.251Z,87950.00
2023-04-16T03:19:56.243Z,87948.00
2023-04-16T03:20:56.280Z,87948.00
2023-04-16T03:21:56.293Z,87950.00
2023-04-16T03:22:56.309Z,87950.00
2023-04-16T03:23:56.352Z,87952.00
2023-04-16T03:24:56.408Z,87952.00
2023-04-16T03:25:56.395Z,87954.00
2023-04-16T03:26:56.439Z,87950.00
2023-04-16T03:27:56.463Z,87956.00
2023-04-16T03:28:56.498Z,87956.00
2023-04-16T03:29:56.513Z,87956.00
2023-04-16T03:30:56.600Z,87954.00
2023-04-16T03:31:56.583Z,87954.00
2023-04-16T03:32:56.640Z,87956.00
2023-04-16T03:33:56.660Z,87956.00
2023-04-16T03:34:56.687Z,87958.00
2023-04-16T03:35:56.719Z,87954.00
2023-04-16T03:36:56.771Z,87958.00
2023-04-16T03:37:56.799Z,87956.00
2023-04-16T03:38:56.844Z,87958.00
2023-04-16T03:39:56.895Z,87960.00
2023-04-16T03:40:56.924Z,87958.00
2023-04-16T03:41:56.951Z,87960.00
2023-04-16T03:42:56.989Z,87962.00
2023-04-16T03:43:57.026Z,87958.00
2023-04-16T03:44:57.009Z,87956.00
2023-04-16T03:45:57.018Z,87956.00
2023-04-16T03:46:57.092Z,87958.00
2023-04-16T03:47:57.020Z,87960.00
2023-04-16T03:48:56.966Z,87956.00
2023-04-16T03:49:56.955Z,87960.00
2023-04-16T03:50:56.935Z,87964.00
2023-04-16T03:51:56.930Z,87962.00
2023-04-16T03:52:56.916Z,87962.00
2023-04-16T03:53:56.903Z,87964.00
2023-04-16T03:54:56.945Z,87964.00
2023-04-16T03:55:57.002Z,87968.00
2023-04-16T03:56:57.066Z,87970.00
2023-04-16T03:57:57.094Z,87972.00
2023-04-16T03:58:57.155Z,87970.00
2023-04-16T03:59:57.192Z,87972.00
2023-04-16T04:00:57.248Z,87972.00
2023-04-16T04:01:57.335Z,87972.00
2023-04-16T04:02:57.537Z,87972.00
2023-04-16T04:03:57.459Z,87972.00
2023-04-16T04:04:57.505Z,87972.00
2023-04-16T04:05:57.502Z,87972.00
2023-04-16T04:06:57.533Z,87972.00
2023-04-16T04:07:57.585Z,87970.00
2023-04-16T04:08:57.648Z,87972.00
2023-04-16T04:09:57.632Z,87972.00
2023-04-16T04:10:57.617Z,87972.00
2023-04-16T04:11:57.610Z,87972.00
2023-04-16T04:12:57.578Z,87972.00
2023-04-16T04:13:57.585Z,87974.00
2023-04-16T04:14:57.563Z,87970.00
2023-04-16T04:15:57.572Z,87972.00
2023-04-16T04:16:57.519Z,87976.00
2023-04-16T04:17:57.584Z,87985.00
2023-04-16T04:18:57.612Z,87985.00
2023-04-16T04:20:01.209Z,87983.00
2023-04-16T04:20:57.627Z,87985.00
2023-04-16T04:21:57.595Z,87987.00
2023-04-16T04:22:57.586Z,87987.00
2023-04-16T04:23:57.574Z,87983.00
2023-04-16T04:24:57.553Z,87976.00
2023-04-16T04:25:57.603Z,87976.00
2023-04-16T04:26:57.528Z,87983.00
2023-04-16T04:27:57.507Z,87987.00
2023-04-16T04:28:57.518Z,87990.00
2023-04-16T04:29:57.478Z,87994.00
2023-04-16T04:30:57.471Z,87998.00
2023-04-16T04:31:57.470Z,87998.00
2023-04-16T04:32:57.472Z,88000.00
2023-04-16T04:33:57.405Z,87996.00
2023-04-16T04:34:57.410Z,87994.00
2023-04-16T04:35:57.378Z,87994.00
2023-04-16T04:36:57.365Z,87996.00
2023-04-16T04:37:57.355Z,87996.00
2023-04-16T04:38:57.350Z,87996.00
2023-04-16T04:39:57.406Z,87998.00
2023-04-16T04:40:57.442Z,87998.00
2023-04-16T04:41:57.474Z,88002.00
2023-04-16T04:42:57.484Z,88002.00
2023-04-16T04:43:57.484Z,88004.00
2023-04-16T04:44:57.504Z,88004.00
2023-04-16T04:45:57.573Z,88006.00
2023-04-16T04:46:57.523Z,88008.00
2023-04-16T04:47:57.606Z,88006.00
2023-04-16T04:48:57.520Z,88008.00
2023-04-16T04:49:57.577Z,88010.00
2023-04-16T04:50:57.536Z,88010.00
2023-04-16T04:51:57.561Z,88012.00
2023-04-16T04:52:57.560Z,88014.00
2023-04-16T04:53:57.588Z,88012.00
2023-04-16T04:54:57.601Z,88012.00
2023-04-16T04:56:08.948Z,88010.00
2023-04-16T04:56:58.580Z,88012.00
2023-04-16T04:57:57.575Z,88014.00
2023-04-16T04:58:57.578Z,88012.00
2023-04-16T04:59:57.568Z,88012.00
2023-04-16T05:00:57.572Z,88014.00
2023-04-16T05:01:57.575Z,88014.00
2023-04-16T05:02:57.625Z,88014.00
2023-04-16T05:03:57.624Z,88012.00
2023-04-16T05:04:57.583Z,88012.00
2023-04-16T05:05:57.547Z,88014.00
2023-04-16T05:06:57.514Z,88012.00
2023-04-16T05:07:57.517Z,88016.00
2023-04-16T05:08:57.495Z,88018.00
2023-04-16T05:09:57.500Z,88020.00
2023-04-16T05:10:57.481Z,88020.00
2023-04-16T05:11:57.489Z,88022.00
2023-04-16T05:12:57.470Z,88018.00
2023-04-16T05:13:57.458Z,88022.00
2023-04-16T05:14:57.434Z,88022.00
2023-04-16T05:15:57.445Z,88020.00
2023-04-16T05:16:57.458Z,88024.00
2023-04-16T05:17:57.412Z,88024.00
2023-04-16T05:18:57.393Z,88020.00
2023-04-16T05:19:57.394Z,88024.00
2023-04-16T05:20:57.371Z,88024.00
2023-04-16T05:21:57.393Z,88028.00
2023-04-16T05:22:57.353Z,88030.00
2023-04-16T05:23:57.427Z,88028.00
2023-04-16T05:24:57.326Z,88028.00
2023-04-16T05:25:57.333Z,88028.00
2023-04-16T05:26:57.342Z,88032.00
2023-04-16T05:27:57.363Z,88028.00
2023-04-16T05:28:57.337Z,88028.00
2023-04-16T05:29:57.276Z,88030.00
2023-04-16T05:30:57.265Z,88030.00
2023-04-16T05:31:57.245Z,88028.00
2023-04-16T05:32:57.247Z,88030.00
2023-04-16T05:33:57.256Z,88032.00
2023-04-16T05:34:57.204Z,88034.00
2023-04-16T05:35:57.193Z,88034.00
2023-04-16T05:36:57.178Z,88037.00
2023-04-16T05:37:57.177Z,88039.00
2023-04-16T05:38:57.178Z,88042.00
2023-04-16T05:39:57.190Z,88039.00
2023-04-16T05:40:57.155Z,88039.00
2023-04-16T05:41:57.158Z,88039.00
2023-04-16T05:42:57.131Z,88039.00
2023-04-16T05:43:57.269Z,88039.00
2023-04-16T05:44:57.138Z,88042.00
2023-04-16T05:45:57.142Z,88042.00
2023-04-16T05:46:57.109Z,88044.00
2023-04-16T05:47:57.098Z,88045.00
2023-04-16T05:48:57.072Z,88045.00
2023-04-16T05:49:57.068Z,88045.00
2023-04-16T05:50:57.050Z,88047.00
2023-04-16T05:51:57.029Z,88053.00
2023-04-16T05:52:57.028Z,88053.00
2023-04-16T05:53:57.025Z,88053.00
2023-04-16T05:54:57.018Z,88057.00
2023-04-16T05:55:57.005Z,88059.00
2023-04-16T05:56:57.029Z,88059.00
2023-04-16T05:57:57.023Z,88061.00
2023-04-16T05:58:57.025Z,88061.00
2023-04-16T05:59:57.057Z,88059.00
2023-04-16T06:00:57.061Z,88063.00
2023-04-16T06:01:57.052Z,88063.00
2023-04-16T06:02:57.168Z,88063.00
2023-04-16T06:03:57.163Z,88063.00
2023-04-16T06:04:57.055Z,88065.00
2023-04-16T06:05:57.096Z,88065.00
2023-04-16T06:06:57.056Z,88065.00
2023-04-16T06:07:57.062Z,88067.00
2023-04-16T06:08:57.074Z,88063.00
2023-04-16T06:09:57.074Z,88063.00
2023-04-16T06:10:57.088Z,88065.00
2023-04-16T06:11:57.088Z,88069.00
2023-04-16T06:12:57.087Z,88065.00
2023-04-16T06:13:57.089Z,88069.00
2023-04-16T06:14:57.093Z,88067.00
2023-04-16T06:15:57.147Z,88069.00
2023-04-16T06:16:57.101Z,88069.00
2023-04-16T06:17:58.065Z,88067.00
2023-04-16T06:18:57.157Z,88067.00
2023-04-16T06:19:57.127Z,88069.00
2023-04-16T06:20:57.140Z,88067.00
2023-04-16T06:21:57.113Z,88067.00
2023-04-16T06:22:57.118Z,88065.00
2023-04-16T06:23:57.127Z,88065.00
2023-04-16T06:24:57.126Z,88067.00
2023-04-16T06:25:57.126Z,88063.00
2023-04-16T06:26:57.123Z,88061.00
2023-04-16T06:27:57.123Z,88059.00
2023-04-16T06:28:57.128Z,88059.00
2023-04-16T06:29:57.139Z,88061.00
2023-04-16T06:30:57.147Z,88061.00
2023-04-16T06:31:57.156Z,88065.00
2023-04-16T06:32:57.163Z,88067.00
2023-04-16T06:33:57.164Z,88067.00
2023-04-16T06:34:57.155Z,88069.00
2023-04-16T06:35:57.162Z,88069.00
2023-04-16T06:36:57.150Z,88071.00
2023-04-16T06:37:57.157Z,88073.00
2023-04-16T06:38:57.174Z,88071.00
2023-04-16T06:39:57.170Z,88075.00
2023-04-16T06:40:57.170Z,88073.00
2023-04-16T06:41:57.184Z,88075.00
2023-04-16T06:42:57.170Z,88073.00
2023-04-16T06:43:57.227Z,88073.00
2023-04-16T06:44:57.185Z,88077.00
2023-04-16T06:45:57.195Z,88075.00
2023-04-16T06:46:57.185Z,88075.00
2023-04-16T06:47:57.200Z,88075.00
2023-04-16T06:48:57.216Z,88075.00
2023-04-16T06:49:57.181Z,88077.00
2023-04-16T06:50:57.166Z,88081.00
2023-04-16T06:51:57.168Z,88079.00
2023-04-16T06:52:57.198Z,88077.00
2023-04-16T06:53:57.202Z,88077.00
2023-04-16T06:54:57.189Z,88077.00
2023-04-16T06:55:57.173Z,88075.00
2023-04-16T06:56:57.187Z,88075.00
2023-04-16T06:57:57.182Z,88077.00
2023-04-16T06:58:57.204Z,88079.00
2023-04-16T06:59:57.221Z,88077.00
2023-04-16T07:00:57.207Z,88075.00
2023-04-16T07:01:57.276Z,88075.00
2023-04-16T07:02:58.745Z,88073.00
2023-04-16T07:03:57.314Z,88075.00
2023-04-16T07:04:57.204Z,88075.00
2023-04-16T07:05:57.193Z,88075.00
2023-04-16T07:06:57.203Z,88075.00
2023-04-16T07:07:57.182Z,88077.00
2023-04-16T07:08:57.196Z,88077.00
2023-04-16T07:09:57.198Z,88075.00
2023-04-16T07:10:57.186Z,88075.00
2023-04-16T07:11:57.168Z,88077.00
2023-04-16T07:12:57.176Z,88075.00
2023-04-16T07:13:57.164Z,88077.00
2023-04-16T07:14:57.142Z,88079.00
2023-04-16T07:15:57.156Z,88077.00
2023-04-16T07:16:57.144Z,88079.00
2023-04-16T07:17:57.194Z,88079.00
2023-04-16T07:18:57.058Z,88083.00
2023-04-16T07:19:57.059Z,88083.00
2023-04-16T07:20:57.040Z,88081.00
2023-04-16T07:21:57.014Z,88081.00
2023-04-16T07:22:56.986Z,88081.00
2023-04-16T07:23:56.976Z,88081.00
2023-04-16T07:24:56.975Z,88081.00
2023-04-16T07:25:56.936Z,88081.00
2023-04-16T07:26:56.915Z,88087.00
2023-04-16T07:27:56.891Z,88087.00
2023-04-16T07:28:56.867Z,88083.00
2023-04-16T07:29:56.871Z,88087.00
2023-04-16T07:30:56.851Z,88083.00
2023-04-16T07:31:56.888Z,88087.00
2023-04-16T07:32:56.831Z,88089.00
2023-04-16T07:33:56.783Z,88087.00
2023-04-16T07:34:56.781Z,88094.00
2023-04-16T07:35:56.759Z,88098.00
2023-04-16T07:36:56.730Z,88100.00
2023-04-16T07:37:56.718Z,88096.00
2023-04-16T07:38:56.681Z,88092.00
2023-04-16T07:39:57.440Z,88096.00
2023-04-16T07:40:56.675Z,88100.00
2023-04-16T07:41:56.629Z,88098.00
2023-04-16T07:42:56.615Z,88092.00
2023-04-16T07:43:56.610Z,88096.00
2023-04-16T07:44:56.611Z,88100.00
2023-04-16T07:45:56.599Z,88098.00
2023-04-16T07:46:56.584Z,88100.00
2023-04-16T07:47:56.623Z,88096.00
2023-04-16T07:48:56.495Z,88098.00
2023-04-16T07:49:56.475Z,88100.00
2023-04-16T07:50:56.456Z,88102.00
2023-04-16T07:51:56.431Z,88102.00
2023-04-16T07:52:56.426Z,88100.00
2023-04-16T07:53:56.397Z,88102.00
2023-04-16T07:54:56.385Z,88102.00
2023-04-16T07:55:56.373Z,88102.00
2023-04-16T07:56:56.394Z,88104.00
2023-04-16T07:57:56.321Z,88104.00
2023-04-16T07:58:56.306Z,88106.00
2023-04-16T07:59:56.286Z,88104.00
2023-04-16T08:00:56.280Z,88110.00
2023-04-16T08:01:56.271Z,88106.00
2023-04-16T08:02:56.379Z,88106.00
2023-04-16T08:03:56.378Z,88112.00
2023-04-16T08:04:56.303Z,88114.00
2023-04-16T08:05:56.168Z,88114.00
2023-04-16T08:06:56.223Z,88116.00
2023-04-16T08:07:56.136Z,88116.00
2023-04-16T08:08:56.122Z,88118.00
2023-04-16T08:09:56.095Z,88120.00
2023-04-16T08:10:56.170Z,88124.00
2023-04-16T08:11:56.072Z,88124.00
2023-04-16T08:12:56.052Z,88126.00
2023-04-16T08:13:56.035Z,88124.00
2023-04-16T08:14:56.025Z,88128.00
2023-04-16T08:15:56.027Z,88122.00
2023-04-16T08:16:55.989Z,88124.00
2023-04-16T08:17:55.976Z,88124.00
2023-04-16T08:18:55.946Z,88126.00
2023-04-16T08:19:55.910Z,88128.00
2023-04-16T08:20:55.899Z,88128.00
2023-04-16T08:21:55.884Z,88130.00
2023-04-16T08:22:55.877Z,88128.00
2023-04-16T08:23:55.832Z,88130.00
2023-04-16T08:24:55.797Z,88130.00
2023-04-16T08:25:55.797Z,88130.00
2023-04-16T08:27:00.318Z,88132.00
2023-04-16T08:27:56.736Z,88134.00
2023-04-16T08:28:55.714Z,88132.00
2023-04-16T08:29:55.722Z,88134.00
2023-04-16T08:30:55.688Z,88134.00
2023-04-16T08:31:55.846Z,88136.00
2023-04-16T08:32:55.681Z,88136.00
2023-04-16T08:33:55.607Z,88134.00
2023-04-16T08:34:55.602Z,88136.00
2023-04-16T08:35:55.584Z,88138.00
2023-04-16T08:36:55.553Z,88138.00
2023-04-16T08:37:55.526Z,88138.00
2023-04-16T08:38:55.505Z,88139.00
2023-04-16T08:39:55.472Z,88141.00
2023-04-16T08:40:55.473Z,88139.00
2023-04-16T08:41:55.433Z,88146.00
2023-04-16T08:42:55.410Z,88146.00
2023-04-16T08:43:55.402Z,88144.00
2023-04-16T08:44:55.351Z,88149.00
2023-04-16T08:45:55.341Z,88147.00
2023-04-16T08:46:55.403Z,88146.00
2023-04-16T08:47:55.342Z,88151.00
2023-04-16T08:48:55.277Z,88149.00
2023-04-16T08:49:57.425Z,88147.00
2023-04-16T08:50:55.438Z,88149.00
2023-04-16T08:51:55.230Z,88147.00
2023-04-16T08:52:55.180Z,88147.00
2023-04-16T08:53:55.151Z,88149.00
2023-04-16T08:54:56.474Z,88149.00
2023-04-16T08:55:55.125Z,88151.00
2023-04-16T08:56:55.115Z,88149.00
2023-04-16T08:57:55.113Z,88149.00
2023-04-16T08:58:55.109Z,88149.00
2023-04-16T08:59:55.077Z,88151.00
2023-04-16T09:00:55.052Z,88149.00
2023-04-16T09:01:55.131Z,88149.00
2023-04-16T09:02:55.239Z,88149.00
2023-04-16T09:03:55.155Z,88146.00
2023-04-16T09:04:55.032Z,88149.00
2023-04-16T09:05:54.956Z,88149.00
2023-04-16T09:06:54.980Z,88147.00
2023-04-16T09:07:54.935Z,88149.00
2023-04-16T09:08:54.971Z,88151.00
2023-04-16T09:09:54.993Z,88147.00
2023-04-16T09:10:55.005Z,88157.00
2023-04-16T09:11:55.052Z,88155.00
2023-04-16T09:12:55.033Z,88159.00
2023-04-16T09:13:55.067Z,88155.00
2023-04-16T09:14:55.042Z,88155.00
2023-04-16T09:15:55.087Z,88155.00
2023-04-16T09:16:55.056Z,88155.00
2023-04-16T09:17:55.070Z,88153.00
2023-04-16T09:18:55.056Z,88157.00
2023-04-16T09:19:55.066Z,88153.00
2023-04-16T09:20:55.064Z,88155.00
2023-04-16T09:21:55.057Z,88153.00
2023-04-16T09:22:55.124Z,88159.00
2023-04-16T09:23:55.135Z,88157.00
2023-04-16T09:24:55.095Z,88159.00
2023-04-16T09:25:55.082Z,88163.00
2023-04-16T09:26:55.104Z,88161.00
2023-04-16T09:27:55.055Z,88163.00
2023-04-16T09:28:55.063Z,88167.00
2023-04-16T09:29:55.029Z,88159.00
2023-04-16T09:30:54.998Z,88159.00
2023-04-16T09:31:55.050Z,88161.00
2023-04-16T09:32:55.017Z,88157.00
2023-04-16T09:33:55.018Z,88161.00
2023-04-16T09:34:55.082Z,88161.00
2023-04-16T09:35:55.162Z,88161.00
2023-04-16T09:36:55.176Z,88161.00
2023-04-16T09:37:55.181Z,88161.00
2023-04-16T09:38:57.422Z,88161.00
2023-04-16T09:39:55.300Z,88161.00
2023-04-16T09:40:55.364Z,88161.00
2023-04-16T09:41:55.393Z,88161.00
2023-04-16T09:42:55.448Z,88161.00
2023-04-16T09:43:55.465Z,88161.00
2023-04-16T09:44:57.239Z,88159.00
2023-04-16T09:45:55.492Z,88161.00
2023-04-16T09:46:55.478Z,88157.00
2023-04-16T09:47:55.514Z,88165.00
2023-04-16T09:48:55.436Z,88163.00
2023-04-16T09:49:55.402Z,88163.00
2023-04-16T09:50:55.381Z,88165.00
2023-04-16T09:51:55.374Z,88163.00
2023-04-16T09:52:55.348Z,88161.00
2023-04-16T09:53:55.337Z,88165.00
2023-04-16T09:54:55.330Z,88165.00
2023-04-16T09:55:55.297Z,88165.00
2023-04-16T09:56:55.297Z,88163.00
2023-04-16T09:57:55.267Z,88163.00
2023-04-16T09:58:55.258Z,88167.00
2023-04-16T09:59:55.226Z,88161.00
2023-04-16T10:00:55.253Z,88163.00
2023-04-16T10:02:12.232Z,88165.00
2023-04-16T10:02:55.265Z,88165.00
2023-04-16T10:03:55.323Z,88165.00
2023-04-16T10:04:55.178Z,88163.00
2023-04-16T10:05:55.158Z,88161.00
2023-04-16T10:06:55.112Z,88167.00
2023-04-16T10:07:55.099Z,88167.00
2023-04-16T10:08:55.081Z,88161.00
2023-04-16T10:09:55.084Z,88163.00
2023-04-16T10:10:55.041Z,88165.00
2023-04-16T10:11:55.024Z,88165.00
2023-04-16T10:12:55.014Z,88167.00
2023-04-16T10:13:55.021Z,88165.00
2023-04-16T10:14:55.052Z,88163.00
2023-04-16T10:15:55.068Z,88163.00
2023-04-16T10:16:55.144Z,88165.00
2023-04-16T10:17:55.189Z,88167.00
2023-04-16T10:18:55.175Z,88169.00
2023-04-16T10:19:55.184Z,88167.00
2023-04-16T10:20:55.209Z,88171.00
2023-04-16T10:21:55.258Z,88165.00
2023-04-16T10:22:55.214Z,88165.00
2023-04-16T10:23:55.225Z,88169.00
2023-04-16T10:24:55.170Z,88167.00
2023-04-16T10:25:57.325Z,88165.00
2023-04-16T10:26:55.196Z,88159.00
2023-04-16T10:27:55.175Z,88171.00
2023-04-16T10:28:55.188Z,88163.00
2023-04-16T10:29:55.172Z,88169.00
2023-04-16T10:30:55.192Z,88163.00
2023-04-16T10:31:55.176Z,88167.00
2023-04-16T10:32:55.175Z,88167.00
2023-04-16T10:33:55.169Z,88163.00
2023-04-16T10:34:55.158Z,88165.00
2023-04-16T10:36:07.011Z,88165.00
2023-04-16T10:36:56.139Z,88167.00
2023-04-16T10:37:55.086Z,88163.00
2023-04-16T10:38:55.065Z,88165.00
2023-04-16T10:39:55.030Z,88161.00
2023-04-16T10:40:55.006Z,88161.00
2023-04-16T10:41:54.975Z,88161.00
2023-04-16T10:42:54.969Z,88163.00
2023-04-16T10:43:54.949Z,88159.00
2023-04-16T10:44:54.891Z,88163.00
2023-04-16T10:45:54.922Z,88159.00
2023-04-16T10:46:54.851Z,88163.00
2023-04-16T10:47:54.876Z,88161.00
2023-04-16T10:48:54.792Z,88159.00
2023-04-16T10:49:54.762Z,88161.00
2023-04-16T10:50:54.726Z,88157.00
2023-04-16T10:51:54.727Z,88157.00
2023-04-16T10:52:54.690Z,88157.00
2023-04-16T10:53:54.650Z,88161.00
2023-04-16T10:54:54.645Z,88163.00
2023-04-16T10:55:54.589Z,88165.00
2023-04-16T10:56:54.561Z,88167.00
2023-04-16T10:57:54.572Z,88167.00
2023-04-16T10:58:54.529Z,88165.00
2023-04-16T10:59:54.505Z,88163.00
2023-04-16T11:00:54.482Z,88167.00
2023-04-16T11:01:54.531Z,88167.00
2023-04-16T11:02:54.612Z,88167.00
2023-04-16T11:03:54.604Z,88167.00
2023-04-16T11:04:54.467Z,88173.00
2023-04-16T11:05:54.352Z,88169.00
2023-04-16T11:06:54.321Z,88171.00
2023-04-16T11:07:54.313Z,88167.00
2023-04-16T11:08:55.266Z,88171.00
2023-04-16T11:09:54.293Z,88171.00
2023-04-16T11:10:54.251Z,88167.00
2023-04-16T11:11:54.195Z,88173.00
2023-04-16T11:12:54.232Z,88175.00
2023-04-16T11:13:54.152Z,88171.00
2023-04-16T11:14:54.142Z,88175.00
2023-04-16T11:15:54.125Z,88171.00
2023-04-16T11:16:54.071Z,88173.00
2023-04-16T11:17:54.060Z,88173.00
2023-04-16T11:18:55.614Z,88177.00
2023-04-16T11:19:53.978Z,88175.00
2023-04-16T11:20:53.927Z,88175.00
2023-04-16T11:21:53.893Z,88179.00
2023-04-16T11:22:53.894Z,88175.00
2023-04-16T11:23:53.857Z,88175.00
2023-04-16T11:24:53.817Z,88181.00
2023-04-16T11:25:53.791Z,88185.00
2023-04-16T11:26:53.776Z,88179.00
2023-04-16T11:27:53.818Z,88175.00
2023-04-16T11:28:53.767Z,88179.00
2023-04-16T11:29:53.706Z,88177.00
2023-04-16T11:30:53.680Z,88185.00
2023-04-16T11:31:53.707Z,88179.00
2023-04-16T11:32:53.659Z,88179.00
2023-04-16T11:33:53.596Z,88179.00
2023-04-16T11:34:53.564Z,88183.00
2023-04-16T11:35:53.568Z,88183.00
2023-04-16T11:36:53.511Z,88183.00
2023-04-16T11:37:53.493Z,88181.00
2023-04-16T11:38:53.461Z,88185.00
2023-04-16T11:39:53.447Z,88189.00
2023-04-16T11:40:53.558Z,88177.00
2023-04-16T11:41:53.375Z,88181.00
2023-04-16T11:42:53.453Z,88179.00
2023-04-16T11:43:53.325Z,88185.00
2023-04-16T11:44:53.329Z,88181.00